createdAt,value
2018-02-07T00:00:55.846Z,1010.43
2018-02-07T00:02:05.530Z,1010.38
2018-02-07T00:03:15.483Z,1010.38
2018-02-07T00:04:25.169Z,1010.38
2018-02-07T00:05:34.864Z,1010.38
2018-02-07T00:06:44.806Z,1010.38
2018-02-07T00:07:54.741Z,1010.39
2018-02-07T00:09:04.443Z,1010.42
2018-02-07T00:10:14.129Z,1010.38
2018-02-07T00:11:24.079Z,1010.39
2018-02-07T00:12:33.759Z,1010.41
2018-02-07T00:13:43.190Z,1010.37
2018-02-07T00:14:52.875Z,1010.34
2018-02-07T00:16:02.578Z,1010.37
2018-02-07T00:17:12.011Z,1010.33
2018-02-07T00:18:21.698Z,1010.33
2018-02-07T00:19:31.655Z,1010.37
2018-02-07T00:20:41.588Z,1010.38
2018-02-07T00:21:51.277Z,1010.4
2018-02-07T00:23:01.231Z,1010.43
2018-02-07T00:24:10.920Z,1010.41
2018-02-07T00:25:20.616Z,1010.42
2018-02-07T00:26:30.564Z,1010.46
2018-02-07T00:27:40.514Z,1010.42
2018-02-07T00:28:50.460Z,1010.37
2018-02-07T00:29:59.884Z,1010.39
2018-02-07T00:31:09.587Z,1010.4
2018-02-07T00:32:19.536Z,1010.36
2018-02-07T00:33:29.482Z,1010.33
2018-02-07T00:34:39.439Z,1010.39
2018-02-07T00:35:49.394Z,1010.37
2018-02-07T00:36:59.339Z,1010.34
2018-02-07T00:38:09.278Z,1010.33
2018-02-07T00:39:19.220Z,1010.28
2018-02-07T00:40:29.407Z,1010.28
2018-02-07T00:41:39.380Z,1010.24
2018-02-07T00:42:49.326Z,1010.25
2018-02-07T00:43:59.270Z,1010.24
2018-02-07T00:45:08.953Z,1010.19
2018-02-07T00:46:18.936Z,1010.22
2018-02-07T00:47:28.890Z,1010.19
2018-02-07T00:48:38.852Z,1010.22
2018-02-07T00:49:48.801Z,1010.18
2018-02-07T00:50:58.751Z,1010.21
2018-02-07T00:52:08.715Z,1010.18
2018-02-07T00:53:18.662Z,1010.2
2018-02-07T00:54:27.857Z,1010.23
2018-02-07T00:55:37.795Z,1010.24
2018-02-07T00:56:47.480Z,1010.22
2018-02-07T00:57:57.436Z,1010.24
2018-02-07T00:59:07.378Z,1010.27
2018-02-07T01:00:17.098Z,1010.28
2018-02-07T01:01:27.044Z,1010.28
2018-02-07T01:02:36.984Z,1010.24
2018-02-07T01:03:46.934Z,1010.23
2018-02-07T01:04:56.882Z,1010.24
2018-02-07T01:06:06.824Z,1010.26
2018-02-07T01:07:16.522Z,1010.24
2018-02-07T01:08:25.956Z,1010.28
2018-02-07T01:09:35.638Z,1010.24
2018-02-07T01:10:45.330Z,1010.25
2018-02-07T01:11:55.282Z,1010.24
2018-02-07T01:13:04.982Z,1010.25
2018-02-07T01:14:14.944Z,1010.28
2018-02-07T01:15:24.887Z,1010.34
2018-02-07T01:16:34.877Z,1010.31
2018-02-07T01:17:44.554Z,1010.3
2018-02-07T01:18:54.497Z,1010.28
2018-02-07T01:20:04.443Z,1010.24
2018-02-07T01:21:14.129Z,1010.27
2018-02-07T01:22:24.089Z,1010.26
2018-02-07T01:23:34.019Z,1010.22
2018-02-07T01:24:43.965Z,1010.2
2018-02-07T01:25:53.911Z,1010.15
2018-02-07T01:27:03.872Z,1010.12
2018-02-07T01:28:13.804Z,1010.16
2018-02-07T01:29:23.737Z,1010.09
2018-02-07T01:30:33.677Z,1010.12
2018-02-07T01:31:43.631Z,1010.15
2018-02-07T01:32:53.571Z,1010.09
2018-02-07T01:34:03.506Z,1010.07
2018-02-07T01:35:13.453Z,1010.1
2018-02-07T01:36:23.131Z,1010.11
2018-02-07T01:37:32.822Z,1010.15
2018-02-07T01:38:42.769Z,1010.15
2018-02-07T01:39:52.730Z,1010.15
2018-02-07T01:41:02.678Z,1010.14
2018-02-07T01:42:12.634Z,1010.15
2018-02-07T01:43:22.587Z,1010.18
2018-02-07T01:44:32.535Z,1010.13
2018-02-07T01:45:42.534Z,1010.1
2018-02-07T01:46:51.915Z,1010.11
2018-02-07T01:48:01.864Z,1010.03
2018-02-07T01:49:11.801Z,1010.06
2018-02-07T01:50:21.753Z,1010.01
2018-02-07T01:51:31.690Z,1010.07
2018-02-07T01:52:41.378Z,1010.06
2018-02-07T01:53:51.063Z,1010.04
2018-02-07T01:55:01.001Z,1010.14
2018-02-07T01:56:10.941Z,1010.04
2018-02-07T01:57:20.882Z,1010
2018-02-07T01:58:30.565Z,1010.06
2018-02-07T01:59:40.506Z,1010.05
2018-02-07T02:00:50.472Z,1010.02
2018-02-07T02:02:00.166Z,1010.03
2018-02-07T02:03:10.107Z,1010.01
2018-02-07T02:04:19.534Z,1010.03
2018-02-07T02:05:29.476Z,1010.01
2018-02-07T02:06:39.170Z,1010.01
2018-02-07T02:07:48.855Z,1010.04
2018-02-07T02:08:58.999Z,1010.05
2018-02-07T02:10:08.678Z,1010.01
2018-02-07T02:11:18.608Z,1010.02
2018-02-07T02:12:28.567Z,1009.97
2018-02-07T02:13:38.256Z,1009.91
2018-02-07T02:14:48.212Z,1009.94
2018-02-07T02:15:57.905Z,1009.92
2018-02-07T02:17:07.851Z,1009.98
2018-02-07T02:18:17.532Z,1009.96
2018-02-07T02:19:27.471Z,1009.95
2018-02-07T02:20:37.164Z,1009.93
2018-02-07T02:21:47.116Z,1009.89
2018-02-07T02:22:57.063Z,1009.96
2018-02-07T02:24:07.002Z,1009.99
2018-02-07T02:25:16.947Z,1010.03
2018-02-07T02:26:26.897Z,1010.04
2018-02-07T02:27:36.835Z,1010
2018-02-07T02:28:46.778Z,1010.03
2018-02-07T02:29:56.213Z,1010.03
2018-02-07T02:31:06.155Z,1010.07
2018-02-07T02:32:15.840Z,1010.02
2018-02-07T02:33:25.781Z,1010.05
2018-02-07T02:34:35.472Z,1010.04
2018-02-07T02:35:45.475Z,1010.08
2018-02-07T02:36:55.415Z,1010.08
2018-02-07T02:38:04.853Z,1010.12
2018-02-07T02:39:14.805Z,1010.16
2018-02-07T02:40:24.746Z,1010.2
2018-02-07T02:41:34.686Z,1010.19
2018-02-07T02:42:44.373Z,1010.21
2018-02-07T02:43:54.077Z,1010.18
2018-02-07T02:45:03.819Z,1010.14
2018-02-07T02:46:13.767Z,1010.12
2018-02-07T02:47:23.703Z,1010.19
2018-02-07T02:48:34.006Z,1010.18
2018-02-07T02:49:43.688Z,1010.2
2018-02-07T02:50:53.375Z,1010.22
2018-02-07T02:52:03.322Z,1010.27
2018-02-07T02:53:13.000Z,1010.3
2018-02-07T02:54:22.941Z,1010.34
2018-02-07T02:55:32.888Z,1010.36
2018-02-07T02:56:42.327Z,1010.41
2018-02-07T02:57:52.022Z,1010.46
2018-02-07T02:59:01.954Z,1010.37
2018-02-07T03:00:11.640Z,1010.36
2018-02-07T03:01:21.588Z,1010.38
2018-02-07T03:02:31.530Z,1010.37
2018-02-07T03:03:41.526Z,1010.32
2018-02-07T03:04:51.457Z,1010.34
2018-02-07T03:06:01.469Z,1010.35
2018-02-07T03:07:11.409Z,1010.27
2018-02-07T03:08:21.396Z,1010.34
2018-02-07T03:09:31.335Z,1010.31
2018-02-07T03:10:41.285Z,1010.3
2018-02-07T03:11:50.963Z,1010.29
2018-02-07T03:13:00.911Z,1010.28
2018-02-07T03:14:10.853Z,1010.29
2018-02-07T03:15:20.533Z,1010.29
2018-02-07T03:16:30.471Z,1010.29
2018-02-07T03:17:40.421Z,1010.31
2018-02-07T03:18:50.373Z,1010.36
2018-02-07T03:20:00.078Z,1010.37
2018-02-07T03:21:09.767Z,1010.35
2018-02-07T03:22:19.199Z,1010.31
2018-02-07T03:23:28.882Z,1010.28
2018-02-07T03:24:38.572Z,1010.28
2018-02-07T03:25:48.008Z,1010.2
2018-02-07T03:26:57.943Z,1010.21
2018-02-07T03:28:07.900Z,1010.09
2018-02-07T03:29:17.837Z,1010.13
2018-02-07T03:30:27.803Z,1010.07
2018-02-07T03:31:37.751Z,1010.1
2018-02-07T03:32:47.737Z,1010.12
2018-02-07T03:33:57.683Z,1010.13
2018-02-07T03:35:07.629Z,1010.13
2018-02-07T03:36:17.568Z,1010.15
2018-02-07T03:37:27.502Z,1010.17
2018-02-07T03:38:37.185Z,1010.1
2018-02-07T03:39:46.895Z,1010.12
2018-02-07T03:40:56.852Z,1010.12
2018-02-07T03:42:06.584Z,1010.14
2018-02-07T03:43:16.322Z,1010.16
2018-02-07T03:44:26.271Z,1010.14
2018-02-07T03:45:36.218Z,1010.15
2018-02-07T03:46:46.172Z,1010.06
2018-02-07T03:47:55.852Z,1010.06
2018-02-07T03:49:05.788Z,1010.04
2018-02-07T03:50:15.729Z,1010.05
2018-02-07T03:51:25.671Z,1010.13
2018-02-07T03:52:35.608Z,1010.13
2018-02-07T03:53:45.294Z,1010.16
2018-02-07T03:54:54.982Z,1010.08
2018-02-07T03:56:04.927Z,1010.08
2018-02-07T03:57:14.615Z,1010.11
2018-02-07T03:58:24.047Z,1010.13
2018-02-07T03:59:33.745Z,1010.09
2018-02-07T04:00:43.701Z,1010.14
2018-02-07T04:01:53.395Z,1010.1
2018-02-07T04:03:03.332Z,1010.1
2018-02-07T04:04:13.271Z,1010.05
2018-02-07T04:05:22.962Z,1010.07
2018-02-07T04:06:32.908Z,1010.04
2018-02-07T04:07:42.857Z,1009.99
2018-02-07T04:08:52.787Z,1010.03
2018-02-07T04:10:02.729Z,1010.02
2018-02-07T04:11:12.666Z,1010.01
2018-02-07T04:12:22.608Z,1010.01
2018-02-07T04:13:32.543Z,1009.98
2018-02-07T04:14:42.477Z,1009.94
2018-02-07T04:15:52.424Z,1009.87
2018-02-07T04:17:02.153Z,1009.89
2018-02-07T04:18:12.144Z,1009.89
2018-02-07T04:19:21.843Z,1009.88
2018-02-07T04:20:31.779Z,1009.89
2018-02-07T04:21:41.305Z,1009.95
2018-02-07T04:22:51.239Z,1009.95
2018-02-07T04:24:00.915Z,1009.95
2018-02-07T04:25:10.863Z,1009.97
2018-02-07T04:26:20.807Z,1009.93
2018-02-07T04:27:30.752Z,1009.97
2018-02-07T04:28:40.446Z,1010
2018-02-07T04:29:50.134Z,1009.98
2018-02-07T04:31:00.067Z,1009.96
2018-02-07T04:32:10.024Z,1009.98
2018-02-07T04:33:19.971Z,1009.99
2018-02-07T04:34:29.646Z,1009.95
2018-02-07T04:35:39.377Z,1009.95
2018-02-07T04:36:49.067Z,1009.95
2018-02-07T04:37:59.021Z,1009.95
2018-02-07T04:39:08.988Z,1009.94
2018-02-07T04:40:18.669Z,1009.93
2018-02-07T04:41:28.617Z,1009.92
2018-02-07T04:42:38.312Z,1009.9
2018-02-07T04:43:48.257Z,1009.94
2018-02-07T04:44:58.224Z,1009.92
2018-02-07T04:46:07.915Z,1009.91
2018-02-07T04:47:17.871Z,1009.91
2018-02-07T04:48:27.816Z,1009.94
2018-02-07T04:49:37.648Z,1009.93
2018-02-07T04:50:47.580Z,1009.9
2018-02-07T04:51:57.534Z,1009.91
2018-02-07T04:53:07.225Z,1009.89
2018-02-07T04:54:16.924Z,1009.9
2018-02-07T04:55:26.868Z,1009.95
2018-02-07T04:56:36.845Z,1009.93
2018-02-07T04:57:46.781Z,1009.91
2018-02-07T04:58:56.469Z,1010
2018-02-07T05:00:06.159Z,1010.04
2018-02-07T05:01:16.096Z,1010.03
2018-02-07T05:02:26.030Z,1010.06
2018-02-07T05:03:35.459Z,1010.03
2018-02-07T05:04:44.891Z,1010.09
2018-02-07T05:05:54.578Z,1010.07
2018-02-07T05:07:04.521Z,1010.03
2018-02-07T05:08:14.470Z,1010.07
2018-02-07T05:09:24.419Z,1010.07
2018-02-07T05:10:34.363Z,1010.08
2018-02-07T05:11:44.312Z,1010.11
2018-02-07T05:12:54.271Z,1010.06
2018-02-07T05:14:03.949Z,1010.1
2018-02-07T05:15:13.887Z,1010.08
2018-02-07T05:16:23.818Z,1010.1
2018-02-07T05:17:33.769Z,1010.1
2018-02-07T05:18:43.734Z,1010.14
2018-02-07T05:19:53.670Z,1010.13
2018-02-07T05:21:03.622Z,1010.12
2018-02-07T05:22:13.560Z,1010.09
2018-02-07T05:23:23.491Z,1010.1
2018-02-07T05:24:33.427Z,1010.12
2018-02-07T05:25:43.382Z,1010.12
2018-02-07T05:26:53.076Z,1010.13
2018-02-07T05:28:03.017Z,1010.16
2018-02-07T05:29:12.723Z,1010.14
2018-02-07T05:30:22.668Z,1010.2
2018-02-07T05:31:32.616Z,1010.19
2018-02-07T05:32:42.564Z,1010.24
2018-02-07T05:33:52.499Z,1010.23
2018-02-07T05:35:02.194Z,1010.18
2018-02-07T05:36:12.141Z,1010.17
2018-02-07T05:37:22.097Z,1010.13
2018-02-07T05:38:32.031Z,1010.1
2018-02-07T05:39:41.977Z,1010.08
2018-02-07T05:40:51.922Z,1010.1
2018-02-07T05:42:01.868Z,1010.06
2018-02-07T05:43:11.818Z,1010.09
2018-02-07T05:44:21.242Z,1010.11
2018-02-07T05:45:30.944Z,1010.06
2018-02-07T05:46:40.883Z,1010.15
2018-02-07T05:47:50.575Z,1010.17
2018-02-07T05:49:00.525Z,1010.17
2018-02-07T05:50:10.471Z,1010.21
2018-02-07T05:51:20.157Z,1010.2
2018-02-07T05:52:30.111Z,1010.16
2018-02-07T05:53:39.537Z,1010.2
2018-02-07T05:54:49.214Z,1010.17
2018-02-07T05:55:58.924Z,1010.19
2018-02-07T05:57:08.857Z,1010.21
2018-02-07T05:58:18.804Z,1010.19
2018-02-07T05:59:28.757Z,1010.24
2018-02-07T06:00:38.716Z,1010.24
2018-02-07T06:01:48.656Z,1010.24
2018-02-07T06:02:58.593Z,1010.21
2018-02-07T06:04:08.524Z,1010.18
2018-02-07T06:05:18.225Z,1010.17
2018-02-07T06:06:28.159Z,1010.2
2018-02-07T06:07:37.594Z,1010.18
2018-02-07T06:08:47.537Z,1010.21
2018-02-07T06:09:57.533Z,1010.19
2018-02-07T06:11:07.474Z,1010.24
2018-02-07T06:12:17.410Z,1010.23
2018-02-07T06:13:27.098Z,1010.3
2018-02-07T06:14:37.038Z,1010.32
2018-02-07T06:15:46.720Z,1010.35
2018-02-07T06:16:56.662Z,1010.34
2018-02-07T06:18:06.607Z,1010.33
2018-02-07T06:19:16.548Z,1010.37
2018-02-07T06:20:26.496Z,1010.31
2018-02-07T06:21:36.192Z,1010.34
2018-02-07T06:22:45.895Z,1010.32
2018-02-07T06:23:55.580Z,1010.39
2018-02-07T06:25:05.527Z,1010.41
2018-02-07T06:26:15.464Z,1010.39
2018-02-07T06:27:25.408Z,1010.43
2018-02-07T06:28:35.347Z,1010.4
2018-02-07T06:29:45.024Z,1010.42
2018-02-07T06:30:55.024Z,1010.41
2018-02-07T06:32:04.982Z,1010.42
2018-02-07T06:33:14.922Z,1010.44
2018-02-07T06:34:24.344Z,1010.43
2018-02-07T06:35:34.286Z,1010.47
2018-02-07T06:36:43.977Z,1010.51
2018-02-07T06:37:53.911Z,1010.55
2018-02-07T06:39:03.862Z,1010.54
2018-02-07T06:40:13.802Z,1010.58
2018-02-07T06:41:23.735Z,1010.63
2018-02-07T06:42:33.939Z,1010.55
2018-02-07T06:43:43.880Z,1010.58
2018-02-07T06:44:53.560Z,1010.55
2018-02-07T06:46:03.509Z,1010.58
2018-02-07T06:47:13.477Z,1010.53
2018-02-07T06:48:23.418Z,1010.5
2018-02-07T06:49:33.124Z,1010.55
2018-02-07T06:50:43.059Z,1010.57
2018-02-07T06:51:53.020Z,1010.59
2018-02-07T06:53:02.981Z,1010.6
2018-02-07T06:54:12.906Z,1010.57
2018-02-07T06:55:22.849Z,1010.54
2018-02-07T06:56:32.525Z,1010.54
2018-02-07T06:57:42.214Z,1010.6
2018-02-07T06:58:51.912Z,1010.61
2018-02-07T07:00:01.855Z,1010.64
2018-02-07T07:01:11.789Z,1010.6
2018-02-07T07:02:21.468Z,1010.57
2018-02-07T07:03:31.430Z,1010.61
2018-02-07T07:04:41.424Z,1010.58
2018-02-07T07:05:51.124Z,1010.61
2018-02-07T07:07:01.066Z,1010.57
2018-02-07T07:08:10.755Z,1010.57
2018-02-07T07:09:20.447Z,1010.61
2018-02-07T07:10:30.396Z,1010.61
2018-02-07T07:11:40.343Z,1010.64
2018-02-07T07:12:50.359Z,1010.61
2018-02-07T07:14:00.067Z,1010.62
2018-02-07T07:15:10.034Z,1010.63
2018-02-07T07:16:19.985Z,1010.63
2018-02-07T07:17:30.058Z,1010.63
2018-02-07T07:18:40.008Z,1010.65
2018-02-07T07:19:49.949Z,1010.68
2018-02-07T07:20:59.889Z,1010.7
2018-02-07T07:22:09.849Z,1010.69
2018-02-07T07:23:19.558Z,1010.7
2018-02-07T07:24:29.495Z,1010.72
2018-02-07T07:25:39.444Z,1010.7
2018-02-07T07:26:49.140Z,1010.73
2018-02-07T07:27:58.587Z,1010.69
2018-02-07T07:29:08.537Z,1010.73
2018-02-07T07:30:18.489Z,1010.68
2018-02-07T07:31:28.455Z,1010.69
2018-02-07T07:32:38.404Z,1010.66
2018-02-07T07:33:48.084Z,1010.68
2018-02-07T07:34:57.772Z,1010.7
2018-02-07T07:36:07.722Z,1010.71
2018-02-07T07:37:17.664Z,1010.7
2018-02-07T07:38:27.634Z,1010.71
2018-02-07T07:39:37.592Z,1010.72
2018-02-07T07:40:47.530Z,1010.78
2018-02-07T07:41:57.467Z,1010.77
2018-02-07T07:43:06.919Z,1010.81
2018-02-07T07:44:16.859Z,1010.82
2018-02-07T07:45:26.801Z,1010.82
2018-02-07T07:46:36.787Z,1010.87
2018-02-07T07:47:46.492Z,1010.87
2018-02-07T07:48:56.424Z,1010.89
2018-02-07T07:50:06.401Z,1010.84
2018-02-07T07:51:16.346Z,1010.85
2018-02-07T07:52:26.028Z,1010.83
2018-02-07T07:53:35.710Z,1010.86
2018-02-07T07:54:45.687Z,1010.8
2018-02-07T07:55:55.647Z,1010.8
2018-02-07T07:57:05.609Z,1010.8
2018-02-07T07:58:15.610Z,1010.75
2018-02-07T07:59:25.307Z,1010.74
2018-02-07T08:00:35.002Z,1010.75
2018-02-07T08:01:44.698Z,1010.74
2018-02-07T08:02:54.423Z,1010.76
2018-02-07T08:04:04.389Z,1010.7
2018-02-07T08:05:14.446Z,1010.77
2018-02-07T08:06:24.399Z,1010.72
2018-02-07T08:07:34.106Z,1010.73
2018-02-07T08:08:44.082Z,1010.75
2018-02-07T08:09:54.035Z,1010.7
2018-02-07T08:11:03.990Z,1010.7
2018-02-07T08:12:13.682Z,1010.79
2018-02-07T08:13:23.642Z,1010.78
2018-02-07T08:14:33.585Z,1010.77
2018-02-07T08:15:43.299Z,1010.79
2018-02-07T08:16:53.254Z,1010.78
2018-02-07T08:18:03.195Z,1010.79
2018-02-07T08:19:13.147Z,1010.78
2018-02-07T08:20:22.832Z,1010.79
2018-02-07T08:21:32.782Z,1010.8
2018-02-07T08:22:42.723Z,1010.77
2018-02-07T08:23:52.666Z,1010.81
2018-02-07T08:25:02.376Z,1010.85
2018-02-07T08:26:12.323Z,1010.88
2018-02-07T08:27:22.008Z,1010.86
2018-02-07T08:28:31.946Z,1010.9
2018-02-07T08:29:41.892Z,1010.87
2018-02-07T08:30:51.578Z,1010.91
2018-02-07T08:32:01.327Z,1010.91
2018-02-07T08:33:10.762Z,1010.91
2018-02-07T08:34:20.731Z,1010.92
2018-02-07T08:35:30.672Z,1010.87
2018-02-07T08:36:40.351Z,1010.9
2018-02-07T08:37:50.046Z,1010.91
2018-02-07T08:38:59.992Z,1010.94
2018-02-07T08:40:09.689Z,1010.93
2018-02-07T08:41:19.639Z,1010.94
2018-02-07T08:42:29.584Z,1011
2018-02-07T08:43:39.522Z,1010.97
2018-02-07T08:44:49.464Z,1010.92
2018-02-07T08:45:59.409Z,1010.94
2018-02-07T08:47:09.111Z,1010.96
2018-02-07T08:48:18.797Z,1010.9
2018-02-07T08:49:28.549Z,1010.94
2018-02-07T08:50:37.981Z,1010.95
2018-02-07T08:51:47.737Z,1010.96
2018-02-07T08:52:57.416Z,1010.95
2018-02-07T08:54:07.365Z,1010.99
2018-02-07T08:55:17.054Z,1010.95
2018-02-07T08:56:27.022Z,1011.01
2018-02-07T08:57:36.708Z,1010.99
2018-02-07T08:58:46.647Z,1010.93
2018-02-07T08:59:56.603Z,1010.96
2018-02-07T09:01:06.561Z,1010.99
2018-02-07T09:02:16.529Z,1010.94
2018-02-07T09:03:26.245Z,1010.94
2018-02-07T09:04:36.009Z,1010.99
2018-02-07T09:05:45.960Z,1011
2018-02-07T09:06:55.913Z,1011
2018-02-07T09:08:05.859Z,1011.01
2018-02-07T09:09:15.816Z,1011.03
2018-02-07T09:10:25.785Z,1011.03
2018-02-07T09:11:35.727Z,1011.04
2018-02-07T09:12:45.671Z,1011.06
2018-02-07T09:13:55.614Z,1011.05
2018-02-07T09:15:05.569Z,1011.08
2018-02-07T09:16:15.253Z,1011.08
2018-02-07T09:17:25.214Z,1011.05
2018-02-07T09:18:35.166Z,1011.11
2018-02-07T09:19:45.103Z,1011.13
2018-02-07T09:20:54.817Z,1011.12
2018-02-07T09:22:04.766Z,1011.12
2018-02-07T09:23:14.466Z,1011.13
2018-02-07T09:24:24.159Z,1011.12
2018-02-07T09:25:34.121Z,1011.11
2018-02-07T09:26:44.086Z,1011.13
2018-02-07T09:27:54.062Z,1011.17
2018-02-07T09:29:04.015Z,1011.13
2018-02-07T09:30:13.957Z,1011.12
2018-02-07T09:31:23.906Z,1011.14
2018-02-07T09:32:33.847Z,1011.11
2018-02-07T09:33:43.327Z,1011.1
2018-02-07T09:34:53.373Z,1011.06
2018-02-07T09:36:03.335Z,1011.02
2018-02-07T09:37:13.050Z,1011.07
2018-02-07T09:38:23.017Z,1011.06
2018-02-07T09:39:32.725Z,1011.11
2018-02-07T09:40:42.666Z,1011.08
2018-02-07T09:41:52.625Z,1011.08
2018-02-07T09:43:02.584Z,1011.12
2018-02-07T09:44:12.553Z,1011.1
2018-02-07T09:45:22.244Z,1011.07
2018-02-07T09:46:32.204Z,1011.12
2018-02-07T09:47:42.165Z,1011.13
2018-02-07T09:48:51.861Z,1011.13
2018-02-07T09:50:01.817Z,1011.18
2018-02-07T09:51:11.817Z,1011.16
2018-02-07T09:52:21.983Z,1011.18
2018-02-07T09:53:31.947Z,1011.24
2018-02-07T09:54:41.946Z,1011.17
2018-02-07T09:55:51.923Z,1011.18
2018-02-07T09:57:01.680Z,1011.25
2018-02-07T09:58:11.650Z,1011.31
2018-02-07T09:59:21.626Z,1011.37
2018-02-07T10:00:31.593Z,1011.34
2018-02-07T10:01:41.301Z,1011.35
2018-02-07T10:02:51.000Z,1011.37
2018-02-07T10:04:00.977Z,1011.32
2018-02-07T10:05:10.956Z,1011.39
2018-02-07T10:06:20.932Z,1011.37
2018-02-07T10:07:30.894Z,1011.36
2018-02-07T10:08:40.599Z,1011.34
2018-02-07T10:09:50.609Z,1011.37
2018-02-07T10:11:00.578Z,1011.4
2018-02-07T10:12:10.270Z,1011.4
2018-02-07T10:13:20.221Z,1011.41
2018-02-07T10:14:30.181Z,1011.41
2018-02-07T10:15:40.138Z,1011.45
2018-02-07T10:16:50.112Z,1011.47
2018-02-07T10:18:00.076Z,1011.51
2018-02-07T10:19:09.766Z,1011.53
2018-02-07T10:20:19.538Z,1011.54
2018-02-07T10:21:29.248Z,1011.58
2018-02-07T10:22:39.004Z,1011.59
2018-02-07T10:23:48.972Z,1011.62
2018-02-07T10:24:58.432Z,1011.62
2018-02-07T10:26:08.495Z,1011.6
2018-02-07T10:27:17.682Z,1011.63
2018-02-07T10:28:27.632Z,1011.6
2018-02-07T10:29:37.086Z,1011.63
2018-02-07T10:30:46.791Z,1011.63
2018-02-07T10:31:56.800Z,1011.65
2018-02-07T10:33:06.759Z,1011.67
2018-02-07T10:34:16.453Z,1011.69
2018-02-07T10:35:26.408Z,1011.67
2018-02-07T10:36:35.872Z,1011.72
2018-02-07T10:37:45.837Z,1011.68
2018-02-07T10:38:55.550Z,1011.63
2018-02-07T10:40:05.515Z,1011.6
2018-02-07T10:41:15.255Z,1011.58
2018-02-07T10:42:25.249Z,1011.57
2018-02-07T10:43:35.219Z,1011.63
2018-02-07T10:44:45.174Z,1011.62
2018-02-07T10:45:54.882Z,1011.61
2018-02-07T10:47:04.862Z,1011.6
2018-02-07T10:48:14.582Z,1011.64
2018-02-07T10:49:24.297Z,1011.64
2018-02-07T10:50:34.247Z,1011.65
2018-02-07T10:51:44.257Z,1011.61
2018-02-07T10:52:54.215Z,1011.57
2018-02-07T10:54:04.183Z,1011.63
2018-02-07T10:55:14.144Z,1011.65
2018-02-07T10:56:24.116Z,1011.63
2018-02-07T10:57:33.834Z,1011.69
2018-02-07T10:58:43.561Z,1011.67
2018-02-07T10:59:53.503Z,1011.67
2018-02-07T11:01:03.467Z,1011.67
2018-02-07T11:02:12.921Z,1011.62
2018-02-07T11:03:22.900Z,1011.63
2018-02-07T11:04:32.641Z,1011.63
2018-02-07T11:05:42.593Z,1011.59
2018-02-07T11:06:52.545Z,1011.62
2018-02-07T11:08:02.544Z,1011.62
2018-02-07T11:09:12.257Z,1011.59
2018-02-07T11:10:21.964Z,1011.61
2018-02-07T11:11:31.929Z,1011.61
2018-02-07T11:12:41.621Z,1011.6
2018-02-07T11:13:51.574Z,1011.61
2018-02-07T11:15:01.543Z,1011.61
2018-02-07T11:16:11.509Z,1011.59
2018-02-07T11:17:21.472Z,1011.59
2018-02-07T11:18:31.452Z,1011.6
2018-02-07T11:19:41.559Z,1011.64
2018-02-07T11:20:51.516Z,1011.6
2018-02-07T11:22:01.463Z,1011.57
2018-02-07T11:23:11.159Z,1011.55
2018-02-07T11:24:20.603Z,1011.54
2018-02-07T11:25:29.784Z,1011.59
2018-02-07T11:26:39.481Z,1011.51
2018-02-07T11:27:49.462Z,1011.44
2018-02-07T11:28:59.269Z,1011.44
2018-02-07T11:30:08.980Z,1011.44
2018-02-07T11:31:18.682Z,1011.45
2018-02-07T11:32:28.413Z,1011.45
2018-02-07T11:33:38.378Z,1011.47
2018-02-07T11:34:48.326Z,1011.45
2018-02-07T11:35:58.068Z,1011.43
2018-02-07T11:37:07.528Z,1011.45
2018-02-07T11:38:17.239Z,1011.41
2018-02-07T11:39:27.218Z,1011.38
2018-02-07T11:40:37.169Z,1011.34
2018-02-07T11:41:47.136Z,1011.34
2018-02-07T11:42:57.131Z,1011.38
2018-02-07T11:44:06.838Z,1011.4
2018-02-07T11:45:16.796Z,1011.42
2018-02-07T11:46:26.512Z,1011.44
2018-02-07T11:47:36.216Z,1011.45
2018-02-07T11:48:45.925Z,1011.46
2018-02-07T11:49:55.882Z,1011.42
2018-02-07T11:51:05.573Z,1011.46
2018-02-07T11:52:15.542Z,1011.48
2018-02-07T11:53:25.503Z,1011.45
2018-02-07T11:54:35.198Z,1011.44
2018-02-07T11:55:45.159Z,1011.5
2018-02-07T11:56:55.119Z,1011.43
2018-02-07T11:58:05.103Z,1011.48
2018-02-07T11:59:14.571Z,1011.46
2018-02-07T12:00:24.290Z,1011.45
2018-02-07T12:01:34.008Z,1011.47
2018-02-07T12:02:43.977Z,1011.43
2018-02-07T12:03:53.428Z,1011.47
2018-02-07T12:05:03.143Z,1011.44
2018-02-07T12:06:12.851Z,1011.46
2018-02-07T12:07:22.810Z,1011.43
2018-02-07T12:08:32.785Z,1011.38
2018-02-07T12:09:42.757Z,1011.37
2018-02-07T12:10:52.705Z,1011.33
2018-02-07T12:12:02.715Z,1011.37
2018-02-07T12:13:12.675Z,1011.32
2018-02-07T12:14:22.630Z,1011.34
2018-02-07T12:15:32.616Z,1011.31
2018-02-07T12:16:42.320Z,1011.36
2018-02-07T12:17:52.283Z,1011.31
2018-02-07T12:19:01.986Z,1011.28
2018-02-07T12:20:12.005Z,1011.22
2018-02-07T12:21:21.713Z,1011.17
2018-02-07T12:22:31.165Z,1011.15
2018-02-07T12:23:40.885Z,1011.14
2018-02-07T12:24:50.637Z,1011.17
2018-02-07T12:26:00.623Z,1011.22
2018-02-07T12:27:10.325Z,1011.15
2018-02-07T12:28:20.296Z,1011.17
2018-02-07T12:29:30.007Z,1011.15
2018-02-07T12:30:39.967Z,1011.14
2018-02-07T12:31:49.946Z,1011.14
2018-02-07T12:32:59.922Z,1011.12
2018-02-07T12:34:09.870Z,1011.1
2018-02-07T12:35:19.836Z,1011.11
2018-02-07T12:36:29.273Z,1011.1
2018-02-07T12:37:38.977Z,1011.11
2018-02-07T12:38:48.702Z,1011.08
2018-02-07T12:39:58.394Z,1011.14
2018-02-07T12:41:08.364Z,1011.11
2018-02-07T12:42:18.083Z,1011.2
2018-02-07T12:43:28.049Z,1011.11
2018-02-07T12:44:38.011Z,1011.07
2018-02-07T12:45:47.714Z,1011.06
2018-02-07T12:46:57.674Z,1011.07
2018-02-07T12:48:07.643Z,1011.04
2018-02-07T12:49:17.599Z,1011.07
2018-02-07T12:50:27.297Z,1011.03
2018-02-07T12:51:37.323Z,1011.05
2018-02-07T12:52:47.019Z,1011.02
2018-02-07T12:53:56.992Z,1010.95
2018-02-07T12:55:06.948Z,1010.89
2018-02-07T12:56:16.906Z,1010.88
2018-02-07T12:57:26.873Z,1010.89
2018-02-07T12:58:36.835Z,1010.9
2018-02-07T12:59:46.565Z,1010.87
2018-02-07T13:00:56.531Z,1010.83
2018-02-07T13:02:06.498Z,1010.84
2018-02-07T13:03:16.193Z,1010.85
2018-02-07T13:04:26.146Z,1010.79
2018-02-07T13:05:35.867Z,1010.82
2018-02-07T13:06:45.594Z,1010.84
2018-02-07T13:07:55.396Z,1010.84
2018-02-07T13:09:05.376Z,1010.85
2018-02-07T13:10:15.323Z,1010.81
2018-02-07T13:11:24.765Z,1010.79
2018-02-07T13:12:34.719Z,1010.82
2018-02-07T13:13:44.663Z,1010.75
2018-02-07T13:14:54.365Z,1010.81
2018-02-07T13:16:04.069Z,1010.8
2018-02-07T13:17:14.039Z,1010.79
2018-02-07T13:18:23.739Z,1010.82
2018-02-07T13:19:33.712Z,1010.81
2018-02-07T13:20:43.824Z,1010.83
2018-02-07T13:21:53.808Z,1010.84
2018-02-07T13:23:03.759Z,1010.84
2018-02-07T13:24:13.723Z,1010.79
2018-02-07T13:25:23.685Z,1010.74
2018-02-07T13:26:33.669Z,1010.77
2018-02-07T13:27:43.638Z,1010.78
2018-02-07T13:28:53.599Z,1010.77
2018-02-07T13:30:03.569Z,1010.75
2018-02-07T13:31:13.299Z,1010.74
2018-02-07T13:32:23.268Z,1010.75
2018-02-07T13:33:33.227Z,1010.81
2018-02-07T13:34:43.195Z,1010.78
2018-02-07T13:35:52.914Z,1010.75
2018-02-07T13:37:02.899Z,1010.76
2018-02-07T13:38:12.622Z,1010.67
2018-02-07T13:39:22.590Z,1010.65
2018-02-07T13:40:32.034Z,1010.66
2018-02-07T13:41:41.744Z,1010.65
2018-02-07T13:42:51.449Z,1010.65
2018-02-07T13:44:01.409Z,1010.64
2018-02-07T13:45:11.369Z,1010.58
2018-02-07T13:46:21.323Z,1010.62
2018-02-07T13:47:31.290Z,1010.62
2018-02-07T13:48:41.269Z,1010.59
2018-02-07T13:49:50.474Z,1010.61
2018-02-07T13:51:00.447Z,1010.55
2018-02-07T13:52:10.399Z,1010.55
2018-02-07T13:53:20.364Z,1010.55
2018-02-07T13:54:30.071Z,1010.54
2018-02-07T13:55:39.827Z,1010.54
2018-02-07T13:56:50.012Z,1010.5
2018-02-07T13:57:59.995Z,1010.52
2018-02-07T13:59:09.702Z,1010.51
2018-02-07T14:00:19.673Z,1010.54
2018-02-07T14:01:29.643Z,1010.51
2018-02-07T14:02:39.088Z,1010.5
2018-02-07T14:03:49.038Z,1010.53
2018-02-07T14:04:58.516Z,1010.55
2018-02-07T14:06:08.480Z,1010.6
2018-02-07T14:07:18.449Z,1010.55
2018-02-07T14:08:28.415Z,1010.55